Pickett, Wisconsin
Current Conditions -  °F | °C
As of 8:05 AM on Friday 24 Oct 2014 (Local Time) from KOSH Reporting Station
Haze Haze  
Wind Chill: 46°   Ceiling: 400
Heat Index: 48°   Visibility: 4mi
Dew Point: 47°   Wind: 5mph
Humidity: 96%   Direction: 250°WSW
Pressure: 30.03"   Gusts: NA
Location:  43.91°N, 88.73°W
Report Text: KOSH 241305Z 25004KT 4SM BR OVC004 09/08 A3003 RMK AO2 T00890083
Loading
Personal Weather Stations






























Interactive Weather Map
Tropical Storm Tracking
New forecast layout! Learn more

10-Day Weather Forecast

Advertisements
Track Severe Weather on mobile